sensor_id;sensor_type;location;lat;lon;timestamp;P1;durP1;ratioP1;P2;durP2;ratioP2
20065;SDS011;10193;48.884;9.182;2023-04-21T00:00:48;9.77;;;8.88;;
20065;SDS011;10193;48.884;9.182;2023-04-21T00:03:16;9.57;;;8.68;;
20065;SDS011;10193;48.884;9.182;2023-04-21T00:05:46;9.40;;;8.52;;
20065;SDS011;10193;48.884;9.182;2023-04-21T00:08:13;9.40;;;8.55;;
20065;SDS011;10193;48.884;9.182;2023-04-21T00:10:41;8.65;;;7.95;;
20065;SDS011;10193;48.884;9.182;2023-04-21T00:13:07;9.32;;;8.52;;
20065;SDS011;10193;48.884;9.182;2023-04-21T00:15:34;9.27;;;8.48;;
20065;SDS011;10193;48.884;9.182;2023-04-21T00:18:01;9.55;;;8.75;;
20065;SDS011;10193;48.884;9.182;2023-04-21T00:20:30;9.15;;;8.38;;
20065;SDS011;10193;48.884;9.182;2023-04-21T00:22:57;9.18;;;8.38;;
20065;SDS011;10193;48.884;9.182;2023-04-21T00:25:24;8.82;;;8.02;;
20065;SDS011;10193;48.884;9.182;2023-04-21T00:27:51;9.23;;;8.32;;
20065;SDS011;10193;48.884;9.182;2023-04-21T00:30:17;9.02;;;8.23;;
20065;SDS011;10193;48.884;9.182;2023-04-21T00:32:44;9.77;;;8.88;;
20065;SDS011;10193;48.884;9.182;2023-04-21T00:35:11;9.35;;;8.55;;
20065;SDS011;10193;48.884;9.182;2023-04-21T00:37:39;9.10;;;8.30;;
20065;SDS011;10193;48.884;9.182;2023-04-21T00:40:06;9.75;;;8.85;;
20065;SDS011;10193;48.884;9.182;2023-04-21T00:42:34;9.25;;;8.40;;
20065;SDS011;10193;48.884;9.182;2023-04-21T00:45:00;9.13;;;8.32;;
20065;SDS011;10193;48.884;9.182;2023-04-21T00:47:27;9.85;;;8.98;;
20065;SDS011;10193;48.884;9.182;2023-04-21T00:49:55;9.10;;;8.30;;
20065;SDS011;10193;48.884;9.182;2023-04-21T00:52:22;8.88;;;8.07;;
20065;SDS011;10193;48.884;9.182;2023-04-21T00:54:51;9.15;;;8.25;;
20065;SDS011;10193;48.884;9.182;2023-04-21T00:57:19;10.02;;;9.02;;
20065;SDS011;10193;48.884;9.182;2023-04-21T00:59:46;9.32;;;8.52;;
20065;SDS011;10193;48.884;9.182;2023-04-21T01:02:13;9.60;;;8.80;;
20065;SDS011;10193;48.884;9.182;2023-04-21T01:04:40;9.73;;;8.82;;
20065;SDS011;10193;48.884;9.182;2023-04-21T01:07:07;9.60;;;8.60;;
20065;SDS011;10193;48.884;9.182;2023-04-21T01:09:34;9.65;;;8.68;;
20065;SDS011;10193;48.884;9.182;2023-04-21T01:12:02;9.18;;;8.38;;
20065;SDS011;10193;48.884;9.182;2023-04-21T01:14:31;9.52;;;8.65;;
20065;SDS011;10193;48.884;9.182;2023-04-21T01:16:59;10.10;;;9.10;;
20065;SDS011;10193;48.884;9.182;2023-04-21T01:19:29;9.52;;;8.63;;
20065;SDS011;10193;48.884;9.182;2023-04-21T01:21:59;9.23;;;8.32;;
20065;SDS011;10193;48.884;9.182;2023-04-21T01:24:34;9.67;;;8.77;;
20065;SDS011;10193;48.884;9.182;2023-04-21T01:27:01;9.75;;;8.85;;
20065;SDS011;10193;48.884;9.182;2023-04-21T01:29:30;10.02;;;9.02;;
20065;SDS011;10193;48.884;9.182;2023-04-21T01:31:57;9.18;;;8.38;;
20065;SDS011;10193;48.884;9.182;2023-04-21T01:34:28;9.80;;;8.90;;
20065;SDS011;10193;48.884;9.182;2023-04-21T01:36:55;9.77;;;8.88;;
20065;SDS011;10193;48.884;9.182;2023-04-21T01:39:23;9.85;;;8.95;;
20065;SDS011;10193;48.884;9.182;2023-04-21T01:41:50;9.52;;;8.73;;
20065;SDS011;10193;48.884;9.182;2023-04-21T01:44:16;10.05;;;9.07;;
20065;SDS011;10193;48.884;9.182;2023-04-21T01:46:43;10.23;;;9.30;;
20065;SDS011;10193;48.884;9.182;2023-04-21T01:49:10;9.50;;;8.68;;
20065;SDS011;10193;48.884;9.182;2023-04-21T01:51:36;10.38;;;9.38;;
20065;SDS011;10193;48.884;9.182;2023-04-21T01:54:03;10.02;;;9.02;;
20065;SDS011;10193;48.884;9.182;2023-04-21T01:56:31;10.02;;;9.13;;
20065;SDS011;10193;48.884;9.182;2023-04-21T01:58:58;9.85;;;8.95;;
20065;SDS011;10193;48.884;9.182;2023-04-21T02:01:24;9.85;;;8.95;;
20065;SDS011;10193;48.884;9.182;2023-04-21T02:03:51;9.45;;;8.55;;
20065;SDS011;10193;48.884;9.182;2023-04-21T02:06:18;9.65;;;8.73;;
20065;SDS011;10193;48.884;9.182;2023-04-21T02:08:44;9.95;;;9.05;;
20065;SDS011;10193;48.884;9.182;2023-04-21T02:11:11;9.98;;;9.07;;
20065;SDS011;10193;48.884;9.182;2023-04-21T02:13:39;9.93;;;9.02;;
20065;SDS011;10193;48.884;9.182;2023-04-21T02:16:06;9.38;;;8.48;;
20065;SDS011;10193;48.884;9.182;2023-04-21T02:18:33;10.30;;;9.32;;
20065;SDS011;10193;48.884;9.182;2023-04-21T02:21:04;10.57;;;9.60;;
20065;SDS011;10193;48.884;9.182;2023-04-21T02:23:31;11.25;;;10.15;;
20065;SDS011;10193;48.884;9.182;2023-04-21T02:25:57;10.15;;;9.25;;
20065;SDS011;10193;48.884;9.182;2023-04-21T02:28:24;9.52;;;8.63;;
20065;SDS011;10193;48.884;9.182;2023-04-21T02:30:52;9.15;;;8.35;;
20065;SDS011;10193;48.884;9.182;2023-04-21T02:33:19;9.65;;;8.75;;
20065;SDS011;10193;48.884;9.182;2023-04-21T02:35:45;9.63;;;8.73;;
20065;SDS011;10193;48.884;9.182;2023-04-21T02:38:12;10.00;;;9.10;;
20065;SDS011;10193;48.884;9.182;2023-04-21T02:40:39;9.68;;;8.77;;
20065;SDS011;10193;48.884;9.182;2023-04-21T02:43:06;9.30;;;8.50;;
20065;SDS011;10193;48.884;9.182;2023-04-21T02:45:33;10.55;;;9.45;;
20065;SDS011;10193;48.884;9.182;2023-04-21T02:48:03;10.00;;;9.10;;
20065;SDS011;10193;48.884;9.182;2023-04-21T02:50:29;9.93;;;9.02;;
20065;SDS011;10193;48.884;9.182;2023-04-21T02:52:56;9.60;;;8.80;;
20065;SDS011;10193;48.884;9.182;2023-04-21T02:55:23;9.68;;;8.77;;
20065;SDS011;10193;48.884;9.182;2023-04-21T02:57:50;9.73;;;8.82;;
20065;SDS011;10193;48.884;9.182;2023-04-21T03:00:16;10.00;;;9.00;;
20065;SDS011;10193;48.884;9.182;2023-04-21T03:02:44;9.13;;;8.33;;
20065;SDS011;10193;48.884;9.182;2023-04-21T03:05:12;9.07;;;8.17;;
20065;SDS011;10193;48.884;9.182;2023-04-21T03:07:39;9.70;;;8.80;;
20065;SDS011;10193;48.884;9.182;2023-04-21T03:10:06;10.20;;;9.30;;
20065;SDS011;10193;48.884;9.182;2023-04-21T03:12:33;9.80;;;8.90;;
20065;SDS011;10193;48.884;9.182;2023-04-21T03:14:59;15.85;;;9.32;;
20065;SDS011;10193;48.884;9.182;2023-04-21T03:17:26;21.13;;;9.88;;
20065;SDS011;10193;48.884;9.182;2023-04-21T03:19:53;23.70;;;9.30;;
20065;SDS011;10193;48.884;9.182;2023-04-21T03:22:21;29.92;;;9.18;;
20065;SDS011;10193;48.884;9.182;2023-04-21T03:24:48;40.83;;;9.20;;
20065;SDS011;10193;48.884;9.182;2023-04-21T03:27:14;31.98;;;8.10;;
20065;SDS011;10193;48.884;9.182;2023-04-21T03:29:41;17.45;;;7.53;;
20065;SDS011;10193;48.884;9.182;2023-04-21T03:32:07;15.85;;;7.22;;
20065;SDS011;10193;48.884;9.182;2023-04-21T03:34:34;19.98;;;7.82;;
20065;SDS011;10193;48.884;9.182;2023-04-21T03:37:01;7.70;;;6.97;;
20065;SDS011;10193;48.884;9.182;2023-04-21T03:39:29;9.63;;;6.38;;
20065;SDS011;10193;48.884;9.182;2023-04-21T03:41:56;19.55;;;7.18;;
20065;SDS011;10193;48.884;9.182;2023-04-21T03:44:24;7.25;;;6.63;;
20065;SDS011;10193;48.884;9.182;2023-04-21T03:46:51;6.70;;;6.10;;
20065;SDS011;10193;48.884;9.182;2023-04-21T03:49:17;6.13;;;5.53;;
20065;SDS011;10193;48.884;9.182;2023-04-21T03:51:44;6.32;;;5.20;;
20065;SDS011;10193;48.884;9.182;2023-04-21T03:54:11;11.83;;;5.67;;
20065;SDS011;10193;48.884;9.182;2023-04-21T03:56:39;6.32;;;5.72;;
20065;SDS011;10193;48.884;9.182;2023-04-21T03:59:05;6.13;;;5.53;;
20065;SDS011;10193;48.884;9.182;2023-04-21T04:01:33;6.32;;;5.82;;
20065;SDS011;10193;48.884;9.182;2023-04-21T04:03:59;6.75;;;5.93;;
20065;SDS011;10193;48.884;9.182;2023-04-21T04:06:26;6.32;;;5.82;;
20065;SDS011;10193;48.884;9.182;2023-04-21T04:08:53;6.88;;;5.90;;
20065;SDS011;10193;48.884;9.182;2023-04-21T04:11:20;5.90;;;5.40;;
20065;SDS011;10193;48.884;9.182;2023-04-21T04:13:48;5.97;;;5.47;;
20065;SDS011;10193;48.884;9.182;2023-04-21T04:16:14;9.32;;;5.50;;
20065;SDS011;10193;48.884;9.182;2023-04-21T04:18:42;6.40;;;5.60;;
20065;SDS011;10193;48.884;9.182;2023-04-21T04:21:09;6.38;;;5.88;;
20065;SDS011;10193;48.884;9.182;2023-04-21T04:23:36;16.73;;;5.77;;
20065;SDS011;10193;48.884;9.182;2023-04-21T04:26:03;12.68;;;5.82;;
20065;SDS011;10193;48.884;9.182;2023-04-21T04:28:30;21.47;;;6.43;;
20065;SDS011;10193;48.884;9.182;2023-04-21T04:30:58;9.90;;;6.00;;
20065;SDS011;10193;48.884;9.182;2023-04-21T04:33:27;10.93;;;5.83;;
20065;SDS011;10193;48.884;9.182;2023-04-21T04:35:53;9.90;;;5.63;;
20065;SDS011;10193;48.884;9.182;2023-04-21T04:38:20;6.10;;;5.50;;
20065;SDS011;10193;48.884;9.182;2023-04-21T04:40:51;7.88;;;5.68;;
20065;SDS011;10193;48.884;9.182;2023-04-21T04:43:18;19.80;;;5.30;;
20065;SDS011;10193;48.884;9.182;2023-04-21T04:45:45;18.97;;;5.47;;
20065;SDS011;10193;48.884;9.182;2023-04-21T04:48:13;13.27;;;5.80;;
20065;SDS011;10193;48.884;9.182;2023-04-21T04:50:40;8.80;;;5.70;;
20065;SDS011;10193;48.884;9.182;2023-04-21T04:53:07;11.73;;;6.15;;
20065;SDS011;10193;48.884;9.182;2023-04-21T04:55:33;20.63;;;5.63;;
20065;SDS011;10193;48.884;9.182;2023-04-21T04:58:00;18.25;;;5.50;;
20065;SDS011;10193;48.884;9.182;2023-04-21T05:00:27;17.20;;;6.55;;
20065;SDS011;10193;48.884;9.182;2023-04-21T05:02:54;31.30;;;5.93;;
20065;SDS011;10193;48.884;9.182;2023-04-21T05:05:22;31.42;;;6.07;;
20065;SDS011;10193;48.884;9.182;2023-04-21T05:07:49;19.03;;;5.60;;
20065;SDS011;10193;48.884;9.182;2023-04-21T05:10:16;24.60;;;6.45;;
20065;SDS011;10193;48.884;9.182;2023-04-21T05:12:43;42.77;;;6.20;;
20065;SDS011;10193;48.884;9.182;2023-04-21T05:15:09;35.37;;;6.03;;
20065;SDS011;10193;48.884;9.182;2023-04-21T05:17:36;19.40;;;5.93;;
20065;SDS011;10193;48.884;9.182;2023-04-21T05:20:03;12.20;;;5.57;;
20065;SDS011;10193;48.884;9.182;2023-04-21T05:22:35;11.05;;;6.13;;
20065;SDS011;10193;48.884;9.182;2023-04-21T05:25:02;11.15;;;6.00;;
20065;SDS011;10193;48.884;9.182;2023-04-21T05:27:29;7.03;;;6.28;;
20065;SDS011;10193;48.884;9.182;2023-04-21T05:29:56;12.15;;;6.28;;
20065;SDS011;10193;48.884;9.182;2023-04-21T05:32:23;13.23;;;6.90;;
20065;SDS011;10193;48.884;9.182;2023-04-21T05:34:49;16.10;;;6.60;;
20065;SDS011;10193;48.884;9.182;2023-04-21T05:37:16;13.63;;;7.00;;
20065;SDS011;10193;48.884;9.182;2023-04-21T05:39:44;15.57;;;7.75;;
20065;SDS011;10193;48.884;9.182;2023-04-21T05:42:11;13.93;;;7.50;;
20065;SDS011;10193;48.884;9.182;2023-04-21T05:44:38;25.90;;;8.10;;
20065;SDS011;10193;48.884;9.182;2023-04-21T05:47:04;16.52;;;7.78;;
20065;SDS011;10193;48.884;9.182;2023-04-21T05:49:32;13.30;;;7.70;;
20065;SDS011;10193;48.884;9.182;2023-04-21T05:51:59;14.32;;;8.35;;
20065;SDS011;10193;48.884;9.182;2023-04-21T05:54:25;22.13;;;8.30;;
20065;SDS011;10193;48.884;9.182;2023-04-21T05:56:53;19.00;;;7.93;;
20065;SDS011;10193;48.884;9.182;2023-04-21T05:59:21;22.87;;;8.17;;
20065;SDS011;10193;48.884;9.182;2023-04-21T06:01:47;13.20;;;8.23;;
20065;SDS011;10193;48.884;9.182;2023-04-21T06:04:15;16.83;;;7.72;;
20065;SDS011;10193;48.884;9.182;2023-04-21T06:06:41;23.35;;;9.35;;
20065;SDS011;10193;48.884;9.182;2023-04-21T06:09:08;12.80;;;8.95;;
20065;SDS011;10193;48.884;9.182;2023-04-21T06:11:35;17.67;;;9.30;;
20065;SDS011;10193;48.884;9.182;2023-04-21T06:14:03;11.70;;;10.50;;
20065;SDS011;10193;48.884;9.182;2023-04-21T06:16:30;14.57;;;11.20;;
20065;SDS011;10193;48.884;9.182;2023-04-21T06:18:58;13.23;;;11.05;;
20065;SDS011;10193;48.884;9.182;2023-04-21T06:21:25;12.77;;;11.45;;
20065;SDS011;10193;48.884;9.182;2023-04-21T06:23:51;12.68;;;11.27;;
20065;SDS011;10193;48.884;9.182;2023-04-21T06:26:18;13.68;;;11.57;;
20065;SDS011;10193;48.884;9.182;2023-04-21T06:28:45;12.32;;;11.10;;
20065;SDS011;10193;48.884;9.182;2023-04-21T06:31:13;13.50;;;12.13;;
20065;SDS011;10193;48.884;9.182;2023-04-21T06:33:40;12.65;;;11.38;;
20065;SDS011;10193;48.884;9.182;2023-04-21T06:36:07;12.93;;;11.63;;
20065;SDS011;10193;48.884;9.182;2023-04-21T06:38:33;13.15;;;11.75;;
20065;SDS011;10193;48.884;9.182;2023-04-21T06:41:00;13.40;;;12.10;;
20065;SDS011;10193;48.884;9.182;2023-04-21T06:43:28;13.13;;;11.82;;
20065;SDS011;10193;48.884;9.182;2023-04-21T06:45:55;14.95;;;13.40;;
20065;SDS011;10193;48.884;9.182;2023-04-21T06:48:23;16.33;;;13.50;;
20065;SDS011;10193;48.884;9.182;2023-04-21T06:50:50;16.42;;;14.63;;
20065;SDS011;10193;48.884;9.182;2023-04-21T06:53:17;16.48;;;14.77;;
20065;SDS011;10193;48.884;9.182;2023-04-21T06:55:45;15.85;;;14.18;;
20065;SDS011;10193;48.884;9.182;2023-04-21T06:58:12;14.18;;;12.77;;
20065;SDS011;10193;48.884;9.182;2023-04-21T07:00:39;13.38;;;12.07;;
20065;SDS011;10193;48.884;9.182;2023-04-21T07:03:06;12.93;;;11.63;;
20065;SDS011;10193;48.884;9.182;2023-04-21T07:05:34;12.77;;;11.57;;
20065;SDS011;10193;48.884;9.182;2023-04-21T07:08:01;11.25;;;10.20;;
20065;SDS011;10193;48.884;9.182;2023-04-21T07:10:27;11.40;;;10.30;;
20065;SDS011;10193;48.884;9.182;2023-04-21T07:12:55;10.50;;;9.52;;
20065;SDS011;10193;48.884;9.182;2023-04-21T07:15:21;10.63;;;9.63;;
20065;SDS011;10193;48.884;9.182;2023-04-21T07:17:48;10.48;;;9.43;;
20065;SDS011;10193;48.884;9.182;2023-04-21T07:20:15;11.38;;;10.32;;
20065;SDS011;10193;48.884;9.182;2023-04-21T07:22:43;10.18;;;9.25;;
20065;SDS011;10193;48.884;9.182;2023-04-21T07:25:10;11.43;;;10.32;;
20065;SDS011;10193;48.884;9.182;2023-04-21T07:27:37;11.07;;;10.07;;
20065;SDS011;10193;48.884;9.182;2023-04-21T07:30:04;11.13;;;10.07;;
20065;SDS011;10193;48.884;9.182;2023-04-21T07:32:32;11.38;;;10.32;;
20065;SDS011;10193;48.884;9.182;2023-04-21T07:34:59;11.73;;;10.23;;
20065;SDS011;10193;48.884;9.182;2023-04-21T07:37:26;11.57;;;10.43;;
20065;SDS011;10193;48.884;9.182;2023-04-21T07:39:55;10.38;;;9.48;;
20065;SDS011;10193;48.884;9.182;2023-04-21T07:42:21;10.77;;;9.77;;
20065;SDS011;10193;48.884;9.182;2023-04-21T07:44:49;11.45;;;10.35;;
20065;SDS011;10193;48.884;9.182;2023-04-21T07:47:16;10.93;;;9.93;;
20065;SDS011;10193;48.884;9.182;2023-04-21T07:49:43;12.15;;;10.50;;
20065;SDS011;10193;48.884;9.182;2023-04-21T07:52:10;11.27;;;10.18;;
20065;SDS011;10193;48.884;9.182;2023-04-21T07:54:36;11.15;;;10.05;;
20065;SDS011;10193;48.884;9.182;2023-04-21T07:57:04;10.82;;;9.82;;
20065;SDS011;10193;48.884;9.182;2023-04-21T07:59:31;11.15;;;10.15;;
20065;SDS011;10193;48.884;9.182;2023-04-21T08:01:58;11.25;;;10.13;;
20065;SDS011;10193;48.884;9.182;2023-04-21T08:04:25;10.30;;;9.38;;
20065;SDS011;10193;48.884;9.182;2023-04-21T08:06:51;10.02;;;9.13;;
20065;SDS011;10193;48.884;9.182;2023-04-21T08:09:18;10.15;;;9.15;;
20065;SDS011;10193;48.884;9.182;2023-04-21T08:11:45;9.18;;;8.35;;
20065;SDS011;10193;48.884;9.182;2023-04-21T08:14:13;9.63;;;8.63;;
20065;SDS011;10193;48.884;9.182;2023-04-21T08:16:40;8.93;;;8.13;;
20065;SDS011;10193;48.884;9.182;2023-04-21T08:19:07;8.85;;;8.15;;
20065;SDS011;10193;48.884;9.182;2023-04-21T08:21:34;8.57;;;7.88;;
20065;SDS011;10193;48.884;9.182;2023-04-21T08:24:01;8.70;;;7.90;;
20065;SDS011;10193;48.884;9.182;2023-04-21T08:26:28;8.90;;;8.00;;
20065;SDS011;10193;48.884;9.182;2023-04-21T08:28:58;8.60;;;7.82;;
20065;SDS011;10193;48.884;9.182;2023-04-21T08:31:26;8.30;;;7.60;;
20065;SDS011;10193;48.884;9.182;2023-04-21T08:33:53;7.97;;;7.28;;
20065;SDS011;10193;48.884;9.182;2023-04-21T08:36:20;7.97;;;7.28;;
20065;SDS011;10193;48.884;9.182;2023-04-21T08:38:46;7.82;;;7.13;;
20065;SDS011;10193;48.884;9.182;2023-04-21T08:41:13;7.22;;;6.63;;
20065;SDS011;10193;48.884;9.182;2023-04-21T08:43:39;6.95;;;6.35;;
20065;SDS011;10193;48.884;9.182;2023-04-21T08:46:07;5.63;;;5.15;;
20065;SDS011;10193;48.884;9.182;2023-04-21T08:48:35;6.18;;;5.68;;
20065;SDS011;10193;48.884;9.182;2023-04-21T08:51:06;6.35;;;5.75;;
20065;SDS011;10193;48.884;9.182;2023-04-21T08:53:34;6.10;;;5.60;;
20065;SDS011;10193;48.884;9.182;2023-04-21T08:56:01;6.75;;;6.15;;
20065;SDS011;10193;48.884;9.182;2023-04-21T08:58:29;6.75;;;6.15;;
20065;SDS011;10193;48.884;9.182;2023-04-21T09:00:57;6.95;;;6.35;;
20065;SDS011;10193;48.884;9.182;2023-04-21T09:03:25;7.18;;;6.57;;
20065;SDS011;10193;48.884;9.182;2023-04-21T09:05:57;7.15;;;6.55;;
20065;SDS011;10193;48.884;9.182;2023-04-21T09:08:25;7.90;;;7.20;;
20065;SDS011;10193;48.884;9.182;2023-04-21T09:10:53;7.38;;;6.78;;
20065;SDS011;10193;48.884;9.182;2023-04-21T09:13:21;7.45;;;6.75;;
20065;SDS011;10193;48.884;9.182;2023-04-21T09:15:54;7.65;;;6.95;;
20065;SDS011;10193;48.884;9.182;2023-04-21T09:18:22;7.65;;;6.97;;
20065;SDS011;10193;48.884;9.182;2023-04-21T09:20:50;7.03;;;6.43;;
20065;SDS011;10193;48.884;9.182;2023-04-21T09:23:28;7.10;;;6.50;;
20065;SDS011;10193;48.884;9.182;2023-04-21T09:25:55;6.88;;;6.28;;
20065;SDS011;10193;48.884;9.182;2023-04-21T09:28:21;7.50;;;6.80;;
20065;SDS011;10193;48.884;9.182;2023-04-21T09:30:49;7.28;;;6.57;;
20065;SDS011;10193;48.884;9.182;2023-04-21T09:33:20;6.95;;;6.35;;
20065;SDS011;10193;48.884;9.182;2023-04-21T09:35:47;7.45;;;6.75;;
20065;SDS011;10193;48.884;9.182;2023-04-21T09:38:14;6.95;;;6.35;;
20065;SDS011;10193;48.884;9.182;2023-04-21T09:40:42;6.88;;;6.28;;
20065;SDS011;10193;48.884;9.182;2023-04-21T09:43:09;6.80;;;6.20;;
20065;SDS011;10193;48.884;9.182;2023-04-21T09:45:36;6.68;;;6.07;;
20065;SDS011;10193;48.884;9.182;2023-04-21T09:48:03;6.70;;;6.13;;
20065;SDS011;10193;48.884;9.182;2023-04-21T09:50:32;7.03;;;6.43;;
20065;SDS011;10193;48.884;9.182;2023-04-21T09:53:00;6.75;;;6.15;;
20065;SDS011;10193;48.884;9.182;2023-04-21T09:55:30;6.80;;;6.20;;
20065;SDS011;10193;48.884;9.182;2023-04-21T09:58:00;6.97;;;6.38;;
20065;SDS011;10193;48.884;9.182;2023-04-21T10:00:29;7.25;;;6.57;;
20065;SDS011;10193;48.884;9.182;2023-04-21T10:02:57;7.15;;;6.55;;
20065;SDS011;10193;48.884;9.182;2023-04-21T10:05:29;7.22;;;6.63;;
20065;SDS011;10193;48.884;9.182;2023-04-21T10:07:56;7.00;;;6.40;;
20065;SDS011;10193;48.884;9.182;2023-04-21T10:10:23;6.82;;;6.30;;
20065;SDS011;10193;48.884;9.182;2023-04-21T10:12:52;7.05;;;6.45;;
20065;SDS011;10193;48.884;9.182;2023-04-21T10:15:30;6.97;;;6.38;;
20065;SDS011;10193;48.884;9.182;2023-04-21T10:20:50;6.70;;;6.10;;
20065;SDS011;10193;48.884;9.182;2023-04-21T10:23:36;7.18;;;6.57;;
20065;SDS011;10193;48.884;9.182;2023-04-21T10:26:05;6.05;;;5.55;;
20065;SDS011;10193;48.884;9.182;2023-04-21T10:28:39;6.53;;;5.97;;
20065;SDS011;10193;48.884;9.182;2023-04-21T10:31:18;6.65;;;6.05;;
20065;SDS011;10193;48.884;9.182;2023-04-21T10:39:42;6.40;;;5.90;;
20065;SDS011;10193;48.884;9.182;2023-04-21T10:42:18;6.63;;;6.10;;
20065;SDS011;10193;48.884;9.182;2023-04-21T10:47:45;6.60;;;6.07;;
20065;SDS011;10193;48.884;9.182;2023-04-21T10:50:16;5.85;;;5.32;;
20065;SDS011;10193;48.884;9.182;2023-04-21T10:52:45;6.18;;;5.68;;
20065;SDS011;10193;48.884;9.182;2023-04-21T10:55:16;6.50;;;5.97;;
20065;SDS011;10193;48.884;9.182;2023-04-21T10:57:44;6.40;;;5.90;;
20065;SDS011;10193;48.884;9.182;2023-04-21T11:00:15;6.20;;;5.70;;
20065;SDS011;10193;48.884;9.182;2023-04-21T11:02:54;6.47;;;5.97;;
20065;SDS011;10193;48.884;9.182;2023-04-21T11:05:26;6.57;;;5.90;;
20065;SDS011;10193;48.884;9.182;2023-04-21T11:08:08;6.07;;;5.53;;
20065;SDS011;10193;48.884;9.182;2023-04-21T11:10:43;6.00;;;5.50;;
20065;SDS011;10193;48.884;9.182;2023-04-21T11:13:11;5.97;;;5.47;;
20065;SDS011;10193;48.884;9.182;2023-04-21T11:15:37;5.90;;;5.40;;
20065;SDS011;10193;48.884;9.182;2023-04-21T11:18:05;6.40;;;5.80;;
20065;SDS011;10193;48.884;9.182;2023-04-21T11:20:32;6.00;;;5.47;;
20065;SDS011;10193;48.884;9.182;2023-04-21T11:22:59;6.00;;;5.50;;
20065;SDS011;10193;48.884;9.182;2023-04-21T11:25:26;6.65;;;6.07;;
20065;SDS011;10193;48.884;9.182;2023-04-21T11:27:53;6.60;;;6.00;;
20065;SDS011;10193;48.884;9.182;2023-04-21T11:30:20;6.45;;;5.90;;
20065;SDS011;10193;48.884;9.182;2023-04-21T11:32:55;6.28;;;5.70;;
20065;SDS011;10193;48.884;9.182;2023-04-21T11:35:23;6.00;;;5.50;;
20065;SDS011;10193;48.884;9.182;2023-04-21T11:37:50;6.05;;;5.45;;
20065;SDS011;10193;48.884;9.182;2023-04-21T11:40:17;5.50;;;5.00;;
20065;SDS011;10193;48.884;9.182;2023-04-21T11:42:44;5.60;;;5.10;;
20065;SDS011;10193;48.884;9.182;2023-04-21T11:45:15;5.20;;;4.80;;
20065;SDS011;10193;48.884;9.182;2023-04-21T11:47:43;5.10;;;4.70;;
20065;SDS011;10193;48.884;9.182;2023-04-21T11:50:09;5.05;;;4.65;;
20065;SDS011;10193;48.884;9.182;2023-04-21T11:52:37;5.22;;;4.70;;
20065;SDS011;10193;48.884;9.182;2023-04-21T11:55:11;4.82;;;4.43;;
20065;SDS011;10193;48.884;9.182;2023-04-21T11:57:39;5.20;;;4.25;;
20065;SDS011;10193;48.884;9.182;2023-04-21T12:00:07;4.50;;;4.20;;
20065;SDS011;10193;48.884;9.182;2023-04-21T12:02:35;4.57;;;4.20;;
20065;SDS011;10193;48.884;9.182;2023-04-21T12:05:03;5.38;;;4.97;;
20065;SDS011;10193;48.884;9.182;2023-04-21T12:07:31;5.30;;;4.90;;
20065;SDS011;10193;48.884;9.182;2023-04-21T12:10:00;5.72;;;5.20;;
20065;SDS011;10193;48.884;9.182;2023-04-21T12:12:28;5.32;;;4.93;;
20065;SDS011;10193;48.884;9.182;2023-04-21T12:14:55;5.65;;;5.15;;
20065;SDS011;10193;48.884;9.182;2023-04-21T12:17:21;5.25;;;4.78;;
20065;SDS011;10193;48.884;9.182;2023-04-21T12:19:48;6.05;;;4.70;;
20065;SDS011;10193;48.884;9.182;2023-04-21T12:22:15;5.38;;;4.97;;
20065;SDS011;10193;48.884;9.182;2023-04-21T12:24:43;5.75;;;5.25;;
20065;SDS011;10193;48.884;9.182;2023-04-21T12:27:11;6.03;;;5.53;;
20065;SDS011;10193;48.884;9.182;2023-04-21T12:29:38;5.45;;;5.05;;
20065;SDS011;10193;48.884;9.182;2023-04-21T12:32:06;5.93;;;5.43;;
20065;SDS011;10193;48.884;9.182;2023-04-21T12:34:33;5.70;;;5.20;;
20065;SDS011;10193;48.884;9.182;2023-04-21T12:37:00;5.25;;;4.85;;
20065;SDS011;10193;48.884;9.182;2023-04-21T12:39:28;5.45;;;5.05;;
20065;SDS011;10193;48.884;9.182;2023-04-21T12:41:55;5.25;;;4.85;;
20065;SDS011;10193;48.884;9.182;2023-04-21T12:44:23;5.35;;;4.95;;
20065;SDS011;10193;48.884;9.182;2023-04-21T12:46:50;5.20;;;4.80;;
20065;SDS011;10193;48.884;9.182;2023-04-21T12:49:17;5.18;;;4.78;;
20065;SDS011;10193;48.884;9.182;2023-04-21T12:51:44;4.82;;;4.43;;
20065;SDS011;10193;48.884;9.182;2023-04-21T12:54:11;4.70;;;4.30;;
20065;SDS011;10193;48.884;9.182;2023-04-21T12:56:38;4.68;;;4.28;;
20065;SDS011;10193;48.884;9.182;2023-04-21T12:59:06;5.03;;;4.63;;
20065;SDS011;10193;48.884;9.182;2023-04-21T13:01:35;4.68;;;4.30;;
20065;SDS011;10193;48.884;9.182;2023-04-21T13:04:02;5.63;;;5.13;;
20065;SDS011;10193;48.884;9.182;2023-04-21T13:06:29;5.28;;;4.82;;
20065;SDS011;10193;48.884;9.182;2023-04-21T13:08:56;5.40;;;4.90;;
20065;SDS011;10193;48.884;9.182;2023-04-21T13:11:23;4.50;;;4.10;;
20065;SDS011;10193;48.884;9.182;2023-04-21T13:13:50;4.35;;;3.95;;
20065;SDS011;10193;48.884;9.182;2023-04-21T13:16:16;4.30;;;4.00;;
20065;SDS011;10193;48.884;9.182;2023-04-21T13:18:44;4.70;;;4.30;;
20065;SDS011;10193;48.884;9.182;2023-04-21T13:21:11;5.93;;;4.85;;
20065;SDS011;10193;48.884;9.182;2023-04-21T13:23:38;3.75;;;3.55;;
20065;SDS011;10193;48.884;9.182;2023-04-21T13:26:05;4.47;;;4.00;;
20065;SDS011;10193;48.884;9.182;2023-04-21T13:28:32;4.38;;;4.03;;
20065;SDS011;10193;48.884;9.182;2023-04-21T13:30:59;4.57;;;4.18;;
20065;SDS011;10193;48.884;9.182;2023-04-21T13:33:25;4.75;;;4.35;;
20065;SDS011;10193;48.884;9.182;2023-04-21T13:35:54;4.90;;;4.50;;
20065;SDS011;10193;48.884;9.182;2023-04-21T13:38:20;4.35;;;4.05;;
20065;SDS011;10193;48.884;9.182;2023-04-21T13:40:47;4.75;;;4.28;;
20065;SDS011;10193;48.884;9.182;2023-04-21T13:43:14;4.10;;;3.80;;
20065;SDS011;10193;48.884;9.182;2023-04-21T13:45:41;4.68;;;4.28;;
20065;SDS011;10193;48.884;9.182;2023-04-21T13:48:08;4.45;;;4.13;;
20065;SDS011;10193;48.884;9.182;2023-04-21T13:50:35;4.80;;;4.45;;
20065;SDS011;10193;48.884;9.182;2023-04-21T13:53:03;5.18;;;4.78;;
20065;SDS011;10193;48.884;9.182;2023-04-21T13:55:30;4.75;;;4.35;;
20065;SDS011;10193;48.884;9.182;2023-04-21T13:57:57;5.50;;;4.50;;
20065;SDS011;10193;48.884;9.182;2023-04-21T14:00:24;4.35;;;4.05;;
20065;SDS011;10193;48.884;9.182;2023-04-21T14:02:51;4.28;;;3.88;;
20065;SDS011;10193;48.884;9.182;2023-04-21T14:05:18;4.50;;;4.15;;
20065;SDS011;10193;48.884;9.182;2023-04-21T14:07:44;4.18;;;3.85;;
20065;SDS011;10193;48.884;9.182;2023-04-21T14:10:12;4.22;;;3.90;;
20065;SDS011;10193;48.884;9.182;2023-04-21T14:12:39;3.92;;;3.60;;
20065;SDS011;10193;48.884;9.182;2023-04-21T14:15:08;4.05;;;3.75;;
20065;SDS011;10193;48.884;9.182;2023-04-21T14:17:36;4.20;;;3.90;;
20065;SDS011;10193;48.884;9.182;2023-04-21T14:20:03;3.95;;;3.65;;
20065;SDS011;10193;48.884;9.182;2023-04-21T14:22:31;3.90;;;3.60;;
20065;SDS011;10193;48.884;9.182;2023-04-21T14:24:57;4.20;;;3.90;;
20065;SDS011;10193;48.884;9.182;2023-04-21T14:27:26;4.05;;;3.75;;
20065;SDS011;10193;48.884;9.182;2023-04-21T14:29:52;4.10;;;3.80;;
20065;SDS011;10193;48.884;9.182;2023-04-21T14:32:23;4.20;;;3.83;;
20065;SDS011;10193;48.884;9.182;2023-04-21T14:34:49;4.35;;;3.95;;
20065;SDS011;10193;48.884;9.182;2023-04-21T14:37:17;4.30;;;4.00;;
20065;SDS011;10193;48.884;9.182;2023-04-21T14:39:44;4.15;;;3.85;;
20065;SDS011;10193;48.884;9.182;2023-04-21T14:42:10;3.97;;;3.72;;
20065;SDS011;10193;48.884;9.182;2023-04-21T14:44:38;4.38;;;3.97;;
20065;SDS011;10193;48.884;9.182;2023-04-21T14:47:05;3.70;;;3.50;;
20065;SDS011;10193;48.884;9.182;2023-04-21T14:49:32;3.95;;;3.65;;
20065;SDS011;10193;48.884;9.182;2023-04-21T14:51:58;3.55;;;3.35;;
20065;SDS011;10193;48.884;9.182;2023-04-21T14:54:25;4.00;;;3.70;;
20065;SDS011;10193;48.884;9.182;2023-04-21T14:56:52;3.75;;;3.50;;